SHT22A EGLL-EGJB
Flight info
| Callsign | SHT22A |
|---|---|
| Flight time | 0h 33m |
| Altitude | 17000 |
| Route | GASGU2J GASGU N866 SAM/N0344F160 N63 LELNA LELNA1V |
| Aircraft | A20N/M-SDGHIJ1LRWXY/SB1 |
Departure
| Time | 2026-04-23 11:29 |
|---|---|
| Airport | London Heathrow Airport (EGLL) |
Arrival
| Time | 2026-04-23 12:02 |
|---|---|
| Airport | Guernsey Airport (EGJB) |
| Time | Latitude | Longitude | Altitude | Speed | Heading |
|---|---|---|---|---|---|
| 2026-04-23 10:52 | 51.47087 | -0.48584 | 89 ft | 0 kts | 270° |
| 2026-04-23 11:22 | 51.47087 | -0.48547 | 86 ft | 4 kts | 270° |
| 2026-04-23 11:22 | 51.47088 | -0.48505 | 86 ft | 4 kts | 254° |
| 2026-04-23 11:23 | 51.47101 | -0.48474 | 88 ft | 4 kts | 193° |
| 2026-04-23 11:23 | 51.47122 | -0.48472 | 87 ft | 4 kts | 180° |
| 2026-04-23 11:23 | 51.47127 | -0.48472 | 87 ft | 0 kts | 180° |
| 2026-04-23 11:25 | 51.47122 | -0.48472 | 87 ft | 3 kts | 180° |
| 2026-04-23 11:26 | 51.47066 | -0.48471 | 88 ft | 12 kts | 179° |
| 2026-04-23 11:26 | 51.46972 | -0.48470 | 88 ft | 11 kts | 180° |
| 2026-04-23 11:26 | 51.46901 | -0.48469 | 89 ft | 12 kts | 179° |
| 2026-04-23 11:26 | 51.46806 | -0.48468 | 86 ft | 15 kts | 181° |
| 2026-04-23 11:27 | 51.46706 | -0.48468 | 86 ft | 9 kts | 179° |
| 2026-04-23 11:27 | 51.46643 | -0.48488 | 88 ft | 7 kts | 238° |
| 2026-04-23 11:27 | 51.46651 | -0.48539 | 89 ft | 6 kts | 281° |
| 2026-04-23 11:27 | 51.46652 | -0.48653 | 86 ft | 8 kts | 268° |
| 2026-04-23 11:28 | 51.46634 | -0.48745 | 91 ft | 10 kts | 220° |
| 2026-04-23 11:28 | 51.46558 | -0.48786 | 86 ft | 13 kts | 181° |
| 2026-04-23 11:28 | 51.46481 | -0.48718 | 87 ft | 14 kts | 108° |
| 2026-04-23 11:28 | 51.46479 | -0.48425 | 86 ft | 52 kts | 90° |
| 2026-04-23 11:29 | 51.46482 | -0.47513 | 85 ft | 109 kts | 90° |
| 2026-04-23 11:29 | 51.46482 | -0.46085 | 218 ft | 138 kts | 89° |
| 2026-04-23 11:29 | 51.46487 | -0.44523 | 655 ft | 144 kts | 88° |
| 2026-04-23 11:29 | 51.46504 | -0.42892 | 1198 ft | 145 kts | 88° |
| 2026-04-23 11:30 | 51.46407 | -0.41243 | 1733 ft | 156 kts | 107° |
| 2026-04-23 11:30 | 51.45873 | -0.39629 | 2247 ft | 173 kts | 119° |
| 2026-04-23 11:30 | 51.45127 | -0.37981 | 2735 ft | 193 kts | 124° |
| 2026-04-23 11:30 | 51.44242 | -0.36181 | 3278 ft | 218 kts | 127° |
| 2026-04-23 11:31 | 51.43181 | -0.34288 | 3920 ft | 240 kts | 141° |
| 2026-04-23 11:31 | 51.41596 | -0.33191 | 4682 ft | 259 kts | 168° |
| 2026-04-23 11:31 | 51.39767 | -0.33310 | 5650 ft | 270 kts | 190° |
| 2026-04-23 11:31 | 51.38002 | -0.34412 | 6637 ft | 278 kts | 205° |
| 2026-04-23 11:32 | 51.36565 | -0.36106 | 7548 ft | 282 kts | 217° |
| 2026-04-23 11:32 | 51.35067 | -0.38169 | 8460 ft | 288 kts | 218° |
| 2026-04-23 11:32 | 51.33743 | -0.40612 | 9386 ft | 296 kts | 240° |
| 2026-04-23 11:32 | 51.32919 | -0.43680 | 10275 ft | 303 kts | 248° |
| 2026-04-23 11:33 | 51.32182 | -0.46890 | 10944 ft | 316 kts | 249° |
| 2026-04-23 11:33 | 51.31410 | -0.50333 | 11230 ft | 342 kts | 249° |
| 2026-04-23 11:33 | 51.30572 | -0.54028 | 11590 ft | 362 kts | 249° |
| 2026-04-23 11:33 | 51.29699 | -0.57810 | 12477 ft | 363 kts | 249° |
| 2026-04-23 11:34 | 51.28812 | -0.61622 | 13317 ft | 368 kts | 249° |
| 2026-04-23 11:34 | 51.27903 | -0.65485 | 14061 ft | 375 kts | 249° |
| 2026-04-23 11:34 | 51.26983 | -0.69386 | 14797 ft | 379 kts | 249° |
| 2026-04-23 11:34 | 51.26048 | -0.73344 | 15544 ft | 382 kts | 249° |
| 2026-04-23 11:35 | 51.25104 | -0.77332 | 16277 ft | 386 kts | 249° |
| 2026-04-23 11:35 | 51.24492 | -0.79911 | 16744 ft | 389 kts | 249° |
| 2026-04-23 11:35 | 51.23527 | -0.83978 | 17252 ft | 393 kts | 249° |
| 2026-04-23 11:35 | 51.22554 | -0.88065 | 17405 ft | 394 kts | 249° |
| 2026-04-23 11:36 | 51.21582 | -0.92080 | 17425 ft | 394 kts | 246° |
| 2026-04-23 11:36 | 51.20254 | -0.95962 | 17423 ft | 394 kts | 234° |
| 2026-04-23 11:36 | 51.18511 | -0.99332 | 17669 ft | 395 kts | 223° |
| 2026-04-23 11:36 | 51.16510 | -1.02353 | 18217 ft | 396 kts | 222° |
| 2026-04-23 11:37 | 51.14525 | -1.05392 | 18401 ft | 397 kts | 223° |
| 2026-04-23 11:37 | 51.12540 | -1.08458 | 18424 ft | 398 kts | 223° |
| 2026-04-23 11:37 | 51.10557 | -1.11517 | 18422 ft | 397 kts | 223° |
| 2026-04-23 11:37 | 51.08574 | -1.14568 | 18404 ft | 396 kts | 223° |
| 2026-04-23 11:38 | 51.06586 | -1.17617 | 18405 ft | 397 kts | 222° |
| 2026-04-23 11:38 | 51.04599 | -1.20658 | 18402 ft | 397 kts | 222° |
| 2026-04-23 11:38 | 51.02611 | -1.23693 | 18402 ft | 396 kts | 222° |
| 2026-04-23 11:38 | 51.00618 | -1.26734 | 18401 ft | 397 kts | 222° |
| 2026-04-23 11:39 | 50.98626 | -1.29768 | 18400 ft | 397 kts | 222° |
| 2026-04-23 11:39 | 50.96609 | -1.32750 | 18400 ft | 396 kts | 218° |
| 2026-04-23 11:39 | 50.94389 | -1.35309 | 18400 ft | 394 kts | 209° |
| 2026-04-23 11:39 | 50.91977 | -1.37367 | 18400 ft | 393 kts | 204° |
| 2026-04-23 11:40 | 50.89529 | -1.39298 | 18402 ft | 393 kts | 204° |
| 2026-04-23 11:40 | 50.87089 | -1.41236 | 18398 ft | 393 kts | 204° |
| 2026-04-23 11:40 | 50.84652 | -1.43176 | 18401 ft | 392 kts | 204° |
| 2026-04-23 11:40 | 50.83040 | -1.44461 | 18402 ft | 392 kts | 204° |
| 2026-04-23 11:41 | 50.80607 | -1.46397 | 18399 ft | 391 kts | 204° |
| 2026-04-23 11:41 | 50.78172 | -1.48334 | 18402 ft | 392 kts | 204° |
| 2026-04-23 11:41 | 50.75729 | -1.50275 | 18399 ft | 393 kts | 204° |
| 2026-04-23 11:41 | 50.73291 | -1.52209 | 18399 ft | 391 kts | 204° |
| 2026-04-23 11:42 | 50.70857 | -1.54138 | 18400 ft | 392 kts | 204° |
| 2026-04-23 11:42 | 50.68416 | -1.56070 | 18400 ft | 393 kts | 204° |
| 2026-04-23 11:42 | 50.65975 | -1.57999 | 18400 ft | 392 kts | 204° |
| 2026-04-23 11:42 | 50.63544 | -1.59919 | 18416 ft | 391 kts | 204° |
| 2026-04-23 11:43 | 50.61095 | -1.61850 | 18398 ft | 396 kts | 204° |
| 2026-04-23 11:43 | 50.58632 | -1.63790 | 18393 ft | 395 kts | 204° |
| 2026-04-23 11:43 | 50.56177 | -1.65721 | 18394 ft | 393 kts | 204° |
| 2026-04-23 11:43 | 50.53727 | -1.67647 | 18391 ft | 395 kts | 204° |
| 2026-04-23 11:44 | 50.51261 | -1.69582 | 18394 ft | 397 kts | 204° |
| 2026-04-23 11:44 | 50.48771 | -1.71534 | 18388 ft | 394 kts | 204° |
| 2026-04-23 11:44 | 50.46320 | -1.73462 | 18392 ft | 395 kts | 204° |
| 2026-04-23 11:44 | 50.43896 | -1.75377 | 18389 ft | 396 kts | 204° |
| 2026-04-23 11:45 | 50.41438 | -1.77320 | 18387 ft | 395 kts | 204° |
| 2026-04-23 11:45 | 50.38951 | -1.79258 | 18382 ft | 394 kts | 204° |
| 2026-04-23 11:45 | 50.36517 | -1.81145 | 18381 ft | 397 kts | 204° |
| 2026-04-23 11:45 | 50.34009 | -1.83089 | 18383 ft | 396 kts | 204° |
| 2026-04-23 11:46 | 50.31544 | -1.85000 | 18379 ft | 394 kts | 204° |
| 2026-04-23 11:46 | 50.29107 | -1.86896 | 18374 ft | 390 kts | 204° |
| 2026-04-23 11:46 | 50.26689 | -1.88773 | 18373 ft | 396 kts | 203° |
| 2026-04-23 11:46 | 50.24195 | -1.90700 | 18208 ft | 394 kts | 204° |
| 2026-04-23 11:47 | 50.21739 | -1.92597 | 17687 ft | 394 kts | 203° |
| 2026-04-23 11:47 | 50.19271 | -1.94502 | 16832 ft | 399 kts | 203° |
| 2026-04-23 11:47 | 50.16775 | -1.96427 | 16139 ft | 399 kts | 203° |
| 2026-04-23 11:47 | 50.14378 | -1.98515 | 15788 ft | 392 kts | 214° |
| 2026-04-23 11:48 | 50.12366 | -2.01287 | 15528 ft | 381 kts | 220° |
| 2026-04-23 11:48 | 50.10441 | -2.04099 | 15026 ft | 378 kts | 220° |
| 2026-04-23 11:48 | 50.08534 | -2.06896 | 14550 ft | 375 kts | 220° |
| 2026-04-23 11:48 | 50.06651 | -2.09668 | 14040 ft | 372 kts | 220° |
| 2026-04-23 11:49 | 50.04785 | -2.12440 | 13502 ft | 369 kts | 220° |
| 2026-04-23 11:49 | 50.02940 | -2.15186 | 13002 ft | 365 kts | 220° |
| 2026-04-23 11:49 | 50.01094 | -2.17873 | 12512 ft | 362 kts | 220° |
| 2026-04-23 11:49 | 49.99282 | -2.20564 | 12007 ft | 359 kts | 220° |
| 2026-04-23 11:50 | 49.97493 | -2.23244 | 11511 ft | 356 kts | 220° |
| 2026-04-23 11:50 | 49.95719 | -2.25888 | 11075 ft | 351 kts | 220° |
| 2026-04-23 11:50 | 49.93964 | -2.28493 | 10705 ft | 346 kts | 220° |
| 2026-04-23 11:50 | 49.92286 | -2.31050 | 10582 ft | 332 kts | 220° |
| 2026-04-23 11:51 | 49.90683 | -2.33525 | 10449 ft | 318 kts | 220° |
| 2026-04-23 11:51 | 49.89144 | -2.35908 | 10331 ft | 305 kts | 220° |
| 2026-04-23 11:51 | 49.87662 | -2.38194 | 10063 ft | 299 kts | 220° |
| 2026-04-23 11:51 | 49.86204 | -2.40470 | 9648 ft | 297 kts | 220° |
| 2026-04-23 11:52 | 49.84759 | -2.42754 | 9255 ft | 295 kts | 220° |
| 2026-04-23 11:52 | 49.83329 | -2.45005 | 8876 ft | 292 kts | 220° |
| 2026-04-23 11:52 | 49.81907 | -2.47237 | 8493 ft | 290 kts | 220° |
| 2026-04-23 11:52 | 49.80497 | -2.49455 | 8124 ft | 288 kts | 220° |
| 2026-04-23 11:53 | 49.79105 | -2.51656 | 7848 ft | 285 kts | 220° |
| 2026-04-23 11:53 | 49.77729 | -2.53850 | 7608 ft | 288 kts | 220° |
| 2026-04-23 11:53 | 49.76326 | -2.56077 | 7360 ft | 283 kts | 220° |
| 2026-04-23 11:53 | 49.74947 | -2.58255 | 7112 ft | 284 kts | 220° |
| 2026-04-23 11:54 | 49.73573 | -2.60440 | 6873 ft | 282 kts | 220° |
| 2026-04-23 11:54 | 49.72216 | -2.62609 | 6628 ft | 281 kts | 220° |
| 2026-04-23 11:54 | 49.70857 | -2.64785 | 6374 ft | 281 kts | 220° |
| 2026-04-23 11:54 | 49.69492 | -2.66930 | 6115 ft | 278 kts | 216° |
| 2026-04-23 11:55 | 49.67868 | -2.68353 | 5854 ft | 263 kts | 189° |
| 2026-04-23 11:55 | 49.66088 | -2.68830 | 5500 ft | 262 kts | 190° |
| 2026-04-23 11:55 | 49.64406 | -2.69955 | 5164 ft | 265 kts | 200° |
| 2026-04-23 11:55 | 49.62778 | -2.71217 | 4766 ft | 265 kts | 200° |
| 2026-04-23 11:56 | 49.61121 | -2.72516 | 4394 ft | 263 kts | 200° |
| 2026-04-23 11:56 | 49.59500 | -2.73795 | 4054 ft | 260 kts | 200° |
| 2026-04-23 11:56 | 49.57892 | -2.75069 | 3857 ft | 263 kts | 200° |
| 2026-04-23 11:56 | 49.56275 | -2.76362 | 3658 ft | 260 kts | 200° |
| 2026-04-23 11:57 | 49.54691 | -2.77643 | 3469 ft | 254 kts | 200° |
| 2026-04-23 11:57 | 49.53129 | -2.78753 | 3271 ft | 238 kts | 186° |
| 2026-04-23 11:57 | 49.51542 | -2.79149 | 3078 ft | 227 kts | 180° |
| 2026-04-23 11:57 | 49.50002 | -2.79472 | 2910 ft | 219 kts | 180° |
| 2026-04-23 11:58 | 49.48528 | -2.79795 | 2777 ft | 209 kts | 180° |
| 2026-04-23 11:58 | 49.47132 | -2.80123 | 2667 ft | 197 kts | 180° |
| 2026-04-23 11:58 | 49.45837 | -2.80218 | 2582 ft | 174 kts | 157° |
| 2026-04-23 11:58 | 49.44967 | -2.79270 | 2624 ft | 149 kts | 123° |
| 2026-04-23 11:59 | 49.44417 | -2.77854 | 2555 ft | 153 kts | 120° |
| 2026-04-23 11:59 | 49.43904 | -2.76484 | 2258 ft | 142 kts | 120° |
| 2026-04-23 11:59 | 49.43446 | -2.75232 | 2088 ft | 125 kts | 115° |
| 2026-04-23 11:59 | 49.43217 | -2.74038 | 1964 ft | 113 kts | 103° |
| 2026-04-23 12:00 | 49.43159 | -2.72838 | 1816 ft | 112 kts | 96° |
| 2026-04-23 12:00 | 49.43175 | -2.71654 | 1669 ft | 111 kts | 93° |
| 2026-04-23 12:00 | 49.43210 | -2.70473 | 1518 ft | 111 kts | 92° |
| 2026-04-23 12:00 | 49.43243 | -2.69281 | 1371 ft | 113 kts | 90° |
| 2026-04-23 12:01 | 49.43278 | -2.68084 | 1219 ft | 113 kts | 90° |
| 2026-04-23 12:01 | 49.43313 | -2.66871 | 1060 ft | 117 kts | 90° |
| 2026-04-23 12:01 | 49.43344 | -2.65594 | 911 ft | 117 kts | 88° |
| 2026-04-23 12:01 | 49.43382 | -2.64377 | 724 ft | 118 kts | 89° |
| 2026-04-23 12:02 | 49.43416 | -2.63089 | 575 ft | 120 kts | 86° |
| 2026-04-23 12:02 | 49.43454 | -2.61802 | 400 ft | 120 kts | 88° |
| 2026-04-23 12:02 | 49.43487 | -2.60561 | 309 ft | 109 kts | 88° |
| 2026-04-23 12:02 | 49.43509 | -2.59818 | 325 ft | 33 kts | 86° |
| 2026-04-23 12:03 | 49.43515 | -2.59664 | 328 ft | 13 kts | 86° |
| 2026-04-23 12:03 | 49.43519 | -2.59414 | 334 ft | 28 kts | 89° |
| 2026-04-23 12:03 | 49.43489 | -2.59198 | 333 ft | 16 kts | 160° |
| 2026-04-23 12:03 | 49.43387 | -2.59226 | 334 ft | 14 kts | 233° |
| 2026-04-23 12:04 | 49.43365 | -2.59385 | 330 ft | 18 kts | 268° |
| 2026-04-23 12:04 | 49.43362 | -2.59554 | 329 ft | 11 kts | 269° |
| 2026-04-23 12:04 | 49.43361 | -2.59644 | 329 ft | 9 kts | 269° |
| 2026-04-23 12:04 | 49.43352 | -2.59675 | 325 ft | 3 kts | 212° |
| 2026-04-23 12:05 | 49.43314 | -2.59688 | 328 ft | 6 kts | 179° |
| 2026-04-23 12:05 | 49.43277 | -2.59685 | 328 ft | 4 kts | 178° |
| 2026-04-23 12:05 | 49.43258 | -2.59684 | 328 ft | 1 kts | 178° |
| 2026-04-23 12:05 | 49.43257 | -2.59684 | 328 ft | 0 kts | 178° |